Golden Iris — 3FZK4 — position and weather

sailwx.info

Track history (hours):
 
Tides and Currents Weather Stations Pressure Air Temp Water Temp Dewpoint Dewpoint Depression Visibility Wind Speed Wind Dir Waves Ship Positions

Golden Iris

Last reported at 2014-Jul-31 13:33 UTC. Time now 2014-Jul-31 13:41 UTC.
Position N 33°47' E 031°30'.

Length 163 m; draft 6 m.

Type: Passenger vessel. MMSI: 371771000.

Date/timePositionNaut miles runAvg speedWind from/ knotsBaromVisibWave heightAir tempDewpointWater temp
2014-Jul-31 13:33N 33°47' E 031°30'1414.2
2014-Jul-31 12:34N 33°52' E 031°14'1414.0
2014-Jul-31 11:33N 33°57' E 030°59'1414.1
2014-Jul-31 10:33N 34°02' E 030°43'4314.0
2014-Jul-31 07:29N 34°17' E 029°54'9613.8
2014-Jul-31 00:32N 34°50' E 028°04'1313.6
2014-Jul-30 23:33N 34°55' E 027°49'2913.6
2014-Jul-30 21:24N 35°05' E 027°15'1113.4
2014-Jul-30 20:33N 35°09' E 027°03'1313.2
2014-Jul-30 19:33N 35°14' E 026°48'1413.4
2014-Jul-30 18:32N 35°18' E 026°32'1313.6
2014-Jul-30 17:33N 35°23' E 026°17'1212.3
2014-Jul-30 16:33N 35°20' E 026°02'43 2.5
2014-Jul-29 23:18N 35°46' E 026°45'1210.2
2014-Jul-29 22:08N 35°54' E 026°56'1011.0
2014-Jul-29 21:16N 35°60' E 027°05'810.9
2014-Jul-29 20:33N 36°05' E 027°12'1110.8
2014-Jul-29 19:32N 36°12' E 027°23'1310.7
2014-Jul-29 18:19N 36°18' E 027°37'31 2.9
2014-Jul-29 07:31N 36°27' E 028°14'230 7.0
2014-Jul-27 22:33N 34°17' E 032°07'1514.9
2014-Jul-27 21:33N 34°09' E 032°22'1515.2
2014-Jul-27 20:34N 34°01' E 032°37'1515.2
2014-Jul-27 19:34N 33°52' E 032°53'1514.9
2014-Jul-27 18:33N 33°44' E 033°08'1614.8
2014-Jul-27 17:28N 33°35' E 033°23'1314.3
2014-Jul-27 16:33N 33°27' E 033°36'  
2014-Jul-25 07:21N 34°46' E 033°43'7 9.0
2014-Jul-25 06:33N 34°39' E 033°45'94 9.4
2014-Jul-24 20:33N 33°12' E 034°28'10 9.8
2014-Jul-24 19:34N 33°03' E 034°33'9 9.3
2014-Jul-24 18:33N 32°57' E 034°41'13 9.9
2014-Jul-24 17:12N 32°53' E 034°56'8 0.5
2014-Jul-24 02:27N 32°54' E 034°47'1213.5
2014-Jul-24 01:32N 32°56' E 034°32'2014.1
2014-Jul-24 00:06N 33°00' E 034°09'814.6
2014-Jul-23 23:33N 33°02' E 033°60'1514.6
2014-Jul-23 22:33N 33°06' E 033°43'1514.7
2014-Jul-23 21:33N 33°11' E 033°27'1414.2
2014-Jul-23 20:33N 33°16' E 033°11'1413.9
2014-Jul-23 19:33N 33°21' E 032°55'1414.4
2014-Jul-23 18:33N 33°26' E 032°39'1414.5
2014-Jul-23 17:33N 33°31' E 032°23'1514.5
2014-Jul-23 16:33N 33°36' E 032°06'1414.5
2014-Jul-23 15:33N 33°41' E 031°50'1414.5
2014-Jul-23 14:33N 33°46' E 031°34'1414.5
2014-Jul-23 13:33N 33°51' E 031°17'1414.4
2014-Jul-23 12:33N 33°56' E 031°01'1514.8
2014-Jul-23 11:33N 34°01' E 030°44'1514.6
2014-Jul-23 10:33N 34°07' E 030°28'1414.4
2014-Jul-23 09:33N 34°11' E 030°11'1414.4
2014-Jul-23 08:33N 34°17' E 029°55'1714.6
2014-Jul-23 07:25N 34°22' E 029°36'5814.2
2014-Jul-23 03:18N 34°43' E 028°30'5514.5
2014-Jul-22 23:29N 35°02' E 027°27'3114.5
2014-Jul-22 21:20N 35°13' E 026°51'1614.2
2014-Jul-22 20:12N 35°18' E 026°32'2413.5
2014-Jul-22 18:26N 35°22' E 026°04'1314.2
2014-Jul-22 17:29N 35°14' E 025°50'2 0.2
2014-Jul-22 07:17N 35°13' E 025°48'911.1
2014-Jul-22 06:31N 35°18' E 025°56'7913.1
2014-Jul-22 00:29N 36°06' E 027°14'  
Track history (hours):
 
Tides and Currents Weather Stations Pressure Air Temp Water Temp Dewpoint Dewpoint Depression Visibility Wind Speed Wind Dir Waves Ship Positions

Golden Iris

Last reported at 2014-Jul-31 13:33 UTC. Time now 2014-Jul-31 13:41 UTC.
Position N 33°47' E 031°30'.

Length 163 m; draft 6 m.

Type: Passenger vessel. MMSI: 371771000.

Date/timePositionNaut miles runAvg speedWind from/ knotsBaromVisibWave heightAir tempDewpointWater temp
2014-Jul-31 13:33N 33°47' E 031°30'1414.2
2014-Jul-31 12:34N 33°52' E 031°14'1414.0
2014-Jul-31 11:33N 33°57' E 030°59'1414.1
2014-Jul-31 10:33N 34°02' E 030°43'4314.0
2014-Jul-31 07:29N 34°17' E 029°54'9613.8
2014-Jul-31 00:32N 34°50' E 028°04'1313.6
2014-Jul-30 23:33N 34°55' E 027°49'2913.6
2014-Jul-30 21:24N 35°05' E 027°15'1113.4
2014-Jul-30 20:33N 35°09' E 027°03'1313.2
2014-Jul-30 19:33N 35°14' E 026°48'1413.4
2014-Jul-30 18:32N 35°18' E 026°32'1313.6
2014-Jul-30 17:33N 35°23' E 026°17'1212.3
2014-Jul-30 16:33N 35°20' E 026°02'43 2.5
2014-Jul-29 23:18N 35°46' E 026°45'1210.2
2014-Jul-29 22:08N 35°54' E 026°56'1011.0
2014-Jul-29 21:16N 35°60' E 027°05'810.9
2014-Jul-29 20:33N 36°05' E 027°12'1110.8
2014-Jul-29 19:32N 36°12' E 027°23'1310.7
2014-Jul-29 18:19N 36°18' E 027°37'31 2.9
2014-Jul-29 07:31N 36°27' E 028°14'230 7.0
2014-Jul-27 22:33N 34°17' E 032°07'1514.9
2014-Jul-27 21:33N 34°09' E 032°22'1515.2
2014-Jul-27 20:34N 34°01' E 032°37'1515.2
2014-Jul-27 19:34N 33°52' E 032°53'1514.9
2014-Jul-27 18:33N 33°44' E 033°08'1614.8
2014-Jul-27 17:28N 33°35' E 033°23'1314.3
2014-Jul-27 16:33N 33°27' E 033°36'  
2014-Jul-25 07:21N 34°46' E 033°43'7 9.0
2014-Jul-25 06:33N 34°39' E 033°45'94 9.4
2014-Jul-24 20:33N 33°12' E 034°28'10 9.8
2014-Jul-24 19:34N 33°03' E 034°33'9 9.3
2014-Jul-24 18:33N 32°57' E 034°41'13 9.9
2014-Jul-24 17:12N 32°53' E 034°56'8 0.5
2014-Jul-24 02:27N 32°54' E 034°47'1213.5
2014-Jul-24 01:32N 32°56' E 034°32'2014.1
2014-Jul-24 00:06N 33°00' E 034°09'814.6
2014-Jul-23 23:33N 33°02' E 033°60'1514.6
2014-Jul-23 22:33N 33°06' E 033°43'1514.7
2014-Jul-23 21:33N 33°11' E 033°27'1414.2
2014-Jul-23 20:33N 33°16' E 033°11'1413.9
2014-Jul-23 19:33N 33°21' E 032°55'1414.4
2014-Jul-23 18:33N 33°26' E 032°39'1414.5
2014-Jul-23 17:33N 33°31' E 032°23'1514.5
2014-Jul-23 16:33N 33°36' E 032°06'1414.5
2014-Jul-23 15:33N 33°41' E 031°50'1414.5
2014-Jul-23 14:33N 33°46' E 031°34'1414.5
2014-Jul-23 13:33N 33°51' E 031°17'1414.4
2014-Jul-23 12:33N 33°56' E 031°01'1514.8
2014-Jul-23 11:33N 34°01' E 030°44'1514.6
2014-Jul-23 10:33N 34°07' E 030°28'1414.4
2014-Jul-23 09:33N 34°11' E 030°11'1414.4
2014-Jul-23 08:33N 34°17' E 029°55'1714.6
2014-Jul-23 07:25N 34°22' E 029°36'5814.2
2014-Jul-23 03:18N 34°43' E 028°30'5514.5
2014-Jul-22 23:29N 35°02' E 027°27'3114.5
2014-Jul-22 21:20N 35°13' E 026°51'1614.2
2014-Jul-22 20:12N 35°18' E 026°32'2413.5
2014-Jul-22 18:26N 35°22' E 026°04'1314.2
2014-Jul-22 17:29N 35°14' E 025°50'2 0.2
2014-Jul-22 07:17N 35°13' E 025°48'911.1
2014-Jul-22 06:31N 35°18' E 025°56'7913.1
2014-Jul-22 00:29N 36°06' E 027°14'  

Dump ship's entire track history